Time;durP1;ratioP1;P1;durP2;ratioP2;P2;SDS_P1;SDS_P2;PMS_P1;PMS_P2;Temp;Humidity;BMP_temperature;BMP_pressure;BME280_temperature;BME280_humidity;BME280_pressure;Samples;Min_cycle;Max_cycle;Signal;HPM_P1;HPM_P2
2023/07/02 00:00:17;;;;;;;13.03;5.60;;;;;;;16.54;100.00;100626.66;4896601;29;20032;-95
2023/07/02 00:02:42;;;;;;;10.57;5.53;;;;;;;16.47;100.00;100602.72;4914933;29;20681;-95
2023/07/02 00:05:08;;;;;;;13.43;6.10;;;;;;;16.48;100.00;100609.75;4916138;29;20020;-94
2023/07/02 00:07:35;;;;;;;12.37;5.43;;;;;;;16.46;100.00;100615.44;4916478;29;20031;-96
2023/07/02 00:10:01;;;;;;;17.23;5.70;;;;;;;16.33;100.00;100605.44;4897563;29;20324;-95
2023/07/02 00:12:26;;;;;;;13.40;5.63;;;;;;;16.45;100.00;100619.25;4913463;29;20032;-96
2023/07/02 00:14:52;;;;;;;17.47;6.17;;;;;;;16.35;100.00;100595.13;4917744;29;20509;-94
2023/07/02 00:17:18;;;;;;;12.02;6.40;;;;;;;16.42;100.00;100611.75;4896228;29;20112;-94
2023/07/02 00:19:46;;;;;;;12.65;5.75;;;;;;;16.40;100.00;100607.75;4916852;29;20078;-94
2023/07/02 00:22:12;;;;;;;16.80;6.05;;;;;;;16.38;100.00;100604.53;4918867;29;20137;-96
2023/07/02 00:24:37;;;;;;;17.03;6.43;;;;;;;16.35;100.00;100609.44;4922454;29;20144;-94
2023/07/02 00:27:03;;;;;;;18.63;6.90;;;;;;;16.41;100.00;100617.44;4899932;29;20376;-95
2023/07/02 00:29:28;;;;;;;21.53;7.03;;;;;;;16.38;100.00;100608.06;4910715;29;20043;-95
2023/07/02 00:31:54;;;;;;;17.10;7.25;;;;;;;16.39;100.00;100606.94;4916024;29;20028;-95
2023/07/02 00:34:19;;;;;;;19.13;7.00;;;;;;;16.35;100.00;100584.31;4916557;29;20028;-94
2023/07/02 00:36:45;;;;;;;16.23;7.50;;;;;;;16.33;100.00;100589.22;4915447;29;20030;-96
2023/07/02 00:39:13;;;;;;;17.77;7.70;;;;;;;16.29;100.00;100580.09;4916455;29;20028;-95
2023/07/02 00:41:39;;;;;;;20.53;7.30;;;;;;;16.17;100.00;100567.91;4897324;29;20473;-95
2023/07/02 00:44:04;;;;;;;16.73;7.30;;;;;;;16.09;100.00;100576.72;4920153;29;20292;-94
2023/07/02 00:46:30;;;;;;;18.03;7.73;;;;;;;16.06;100.00;100585.47;4921689;29;20020;-95
2023/07/02 00:48:56;;;;;;;22.38;9.18;;;;;;;15.89;100.00;100589.53;4918096;29;20036;-96
2023/07/02 00:51:24;;;;;;;21.67;8.35;;;;;;;15.68;100.00;100574.78;4918635;29;20095;-95
2023/07/02 00:53:52;;;;;;;19.23;8.75;;;;;;;15.74;100.00;100597.91;4934087;29;20037;-94
2023/07/02 00:56:18;;;;;;;21.90;8.80;;;;;;;15.75;100.00;100608.41;4929258;29;20028;-94
2023/07/02 00:58:48;;;;;;;19.80;8.73;;;;;;;15.74;100.00;100622.19;4911930;29;20048;-96
2023/07/02 01:01:24;;;;;;;24.47;9.27;;;;;;;15.75;100.00;100623.81;4925557;29;20039;-95
2023/07/02 01:03:53;;;;;;;23.02;8.65;;;;;;;15.65;100.00;100611.28;4900149;29;20115;-95
2023/07/02 01:06:24;;;;;;;20.30;9.10;;;;;;;15.71;100.00;100629.00;4936241;29;20015;-96
2023/07/02 01:08:50;;;;;;;21.45;9.32;;;;;;;15.72;100.00;100619.81;4915830;29;20043;-96
2023/07/02 01:11:16;;;;;;;24.52;8.98;;;;;;;15.58;100.00;100611.66;4916598;29;20112;-95
2023/07/02 01:13:43;;;;;;;25.33;10.13;;;;;;;15.71;100.00;100631.72;4915998;29;20143;-95
2023/07/02 01:16:09;;;;;;;22.00;8.93;;;;;;;15.65;100.00;100624.78;4895700;29;20024;-95
2023/07/02 01:18:38;;;;;;;28.73;10.35;;;;;;;15.70;100.00;100621.22;4913751;29;20032;-95
2023/07/02 01:21:06;;;;;;;22.88;10.10;;;;;;;15.66;100.00;100631.78;4915848;29;20545;-95
2023/07/02 01:23:31;;;;;;;20.52;9.40;;;;;;;15.57;100.00;100628.19;4915801;29;20044;-93
2023/07/02 01:25:59;;;;;;;27.23;10.77;;;;;;;15.51;100.00;100632.88;4907804;29;20028;-95
2023/07/02 01:28:25;;;;;;;27.13;10.40;;;;;;;15.37;100.00;100623.91;4915239;29;20772;-95
2023/07/02 01:30:50;;;;;;;27.40;10.15;;;;;;;15.33;100.00;100631.81;4897120;29;20052;-95
2023/07/02 01:33:15;;;;;;;30.47;11.03;;;;;;;15.28;100.00;100629.19;4895701;29;20052;-95
2023/07/02 01:35:41;;;;;;;26.53;11.20;;;;;;;15.24;100.00;100645.16;4910514;29;20323;-95
2023/07/02 01:38:06;;;;;;;27.27;10.87;;;;;;;15.24;100.00;100647.88;4913058;29;20036;-95
2023/07/02 01:40:32;;;;;;;26.50;11.37;;;;;;;15.23;100.00;100645.47;4917640;29;20024;-95
2023/07/02 01:42:57;;;;;;;32.43;11.67;;;;;;;15.16;100.00;100635.03;4920073;29;20032;-94
2023/07/02 01:45:22;;;;;;;31.67;11.93;;;;;;;15.11;100.00;100629.72;4920042;29;20772;-96
2023/07/02 01:47:48;;;;;;;29.53;11.57;;;;;;;15.05;100.00;100620.91;4901402;29;20029;-96
2023/07/02 01:50:13;;;;;;;29.17;11.73;;;;;;;15.16;100.00;100651.22;4919497;29;20024;-96
2023/07/02 01:52:38;;;;;;;25.77;11.40;;;;;;;15.11;100.00;100645.91;4919980;29;20503;-95
2023/07/02 01:55:04;;;;;;;29.93;12.07;;;;;;;15.01;100.00;100640.66;4899404;29;20698;-95
2023/07/02 01:57:30;;;;;;;30.37;11.90;;;;;;;14.96;100.00;100639.66;4916310;29;20472;-95
2023/07/02 01:59:56;;;;;;;28.55;12.05;;;;;;;14.98;100.00;100645.53;4902074;29;20020;-96
2023/07/02 02:02:21;;;;;;;28.00;11.83;;;;;;;14.99;100.00;100652.53;4919708;29;20056;-94
2023/07/02 02:04:46;;;;;;;28.80;12.57;;;;;;;14.96;100.00;100650.44;4918266;29;20067;-95
2023/07/02 02:07:12;;;;;;;27.80;12.37;;;;;;;14.90;100.00;100648.91;4918812;29;20035;-96
2023/07/02 02:09:37;;;;;;;32.33;12.60;;;;;;;14.76;100.00;100635.34;4898720;29;20033;-95
2023/07/02 02:12:03;;;;;;;33.25;13.07;;;;;;;14.90;100.00;100646.22;4898561;29;20032;-94
2023/07/02 02:14:28;;;;;;;31.23;12.53;;;;;;;14.95;100.00;100654.25;4915146;29;20028;-95
2023/07/02 02:16:54;;;;;;;26.57;12.60;;;;;;;14.97;100.00;100653.94;4918038;29;20472;-94
2023/07/02 02:19:19;;;;;;;37.23;14.07;;;;;;;14.97;100.00;100659.31;4929876;29;20535;-95
2023/07/02 02:21:44;;;;;;;32.23;12.70;;;;;;;14.96;100.00;100655.03;4930737;29;20036;-96
2023/07/02 02:24:10;;;;;;;33.13;12.83;;;;;;;14.97;100.00;100660.13;4920556;29;20032;-94
2023/07/02 02:26:35;;;;;;;27.67;12.40;;;;;;;14.89;100.00;100650.00;4906000;29;20033;-94
2023/07/02 02:29:01;;;;;;;28.27;12.90;;;;;;;14.90;100.00;100653.47;4885159;29;20081;-95
2023/07/02 02:31:27;;;;;;;28.20;12.93;;;;;;;14.80;100.00;100657.94;4896444;29;20017;-95
2023/07/02 02:33:52;;;;;;;33.83;13.25;;;;;;;14.73;100.00;100654.00;4899006;29;20048;-95
2023/07/02 02:36:18;;;;;;;26.37;12.43;;;;;;;14.64;100.00;100653.81;4895239;29;20112;-94
2023/07/02 02:38:43;;;;;;;28.53;12.90;;;;;;;14.43;100.00;100645.16;4897135;29;20024;-95
2023/07/02 02:41:08;;;;;;;30.37;12.70;;;;;;;14.42;100.00;100648.97;4899228;29;20825;-95
2023/07/02 02:43:34;;;;;;;33.03;12.93;;;;;;;14.35;100.00;100655.50;4879275;29;20025;-95
2023/07/02 02:45:59;;;;;;;39.83;13.47;;;;;;;14.21;100.00;100655.38;4879074;29;20025;-96
2023/07/02 02:48:25;;;;;;;31.88;13.00;;;;;;;14.19;100.00;100660.25;4879152;29;20029;-96
2023/07/02 02:50:50;;;;;;;33.33;12.70;;;;;;;14.17;100.00;100665.13;4901493;29;20112;-96
2023/07/02 02:53:16;;;;;;;31.03;13.23;;;;;;;14.14;100.00;100675.66;4881208;29;20076;-96
2023/07/02 02:55:41;;;;;;;30.85;12.75;;;;;;;14.09;100.00;100676.53;4899443;29;20032;-96
2023/07/02 02:58:06;;;;;;;33.00;13.50;;;;;;;14.02;100.00;100674.19;4899769;29;20107;-96
2023/07/02 03:00:32;;;;;;;35.87;13.50;;;;;;;14.00;100.00;100679.03;4879514;29;20040;-95
2023/07/02 03:02:58;;;;;;;27.77;12.90;;;;;;;13.93;100.00;100681.25;4898870;29;20021;-96
2023/07/02 03:05:24;;;;;;;28.42;13.18;;;;;;;13.83;100.00;100679.47;4899302;29;20047;-96
2023/07/02 03:07:50;;;;;;;33.17;13.50;;;;;;;13.81;100.00;100683.53;4899151;29;20477;-95
2023/07/02 03:10:16;;;;;;;34.67;13.40;;;;;;;13.78;100.00;100682.22;4898840;29;20029;-96
2023/07/02 03:12:41;;;;;;;35.38;13.48;;;;;;;13.73;100.00;100666.88;4899222;29;20488;-96
2023/07/02 03:15:09;;;;;;;31.53;13.30;;;;;;;13.88;100.00;100689.38;4900656;29;20028;-96
2023/07/02 03:17:35;;;;;;;34.40;13.63;;;;;;;13.64;100.00;100649.75;4880667;29;20504;-96
2023/07/02 03:20:00;;;;;;;36.90;14.17;;;;;;;13.71;100.00;100662.88;4900462;29;20025;-96
2023/07/02 03:22:25;;;;;;;35.90;14.63;;;;;;;13.76;100.00;100674.41;4895588;29;20349;-96
2023/07/02 03:24:51;;;;;;;32.47;13.70;;;;;;;14.11;100.00;100705.88;4899906;29;20060;-95
2023/07/02 03:27:16;;;;;;;36.70;14.03;;;;;;;14.15;100.00;100704.22;4903992;29;20107;-94
2023/07/02 03:29:42;;;;;;;27.45;13.38;;;;;;;14.08;100.00;100699.97;4921247;29;20516;-95
2023/07/02 03:32:07;;;;;;;34.17;14.07;;;;;;;14.14;100.00;100710.69;4900417;29;20021;-94
2023/07/02 03:34:33;;;;;;;32.33;13.37;;;;;;;14.13;100.00;100722.56;4895556;29;20064;-94
2023/07/02 03:36:58;;;;;;;29.38;13.02;;;;;;;14.04;100.00;100700.81;4894229;29;20029;-95
2023/07/02 03:39:23;;;;;;;37.03;14.13;;;;;;;14.05;100.00;100711.31;4898319;29;20066;-96
2023/07/02 03:41:49;;;;;;;28.77;12.97;;;;;;;14.06;100.00;100715.59;4917633;29;20052;-95
2023/07/02 03:44:15;;;;;;;35.05;14.02;;;;;;;14.07;100.00;100725.28;4899274;29;20084;-94
2023/07/02 03:46:40;;;;;;;33.30;12.60;;;;;;;13.99;100.00;100719.72;4907381;29;20025;-95
2023/07/02 03:49:05;;;;;;;33.37;13.50;;;;;;;14.02;100.00;100728.06;4912212;29;20120;-95
2023/07/02 03:51:32;;;;;;;27.83;12.77;;;;;;;13.99;100.00;100736.69;4899081;29;20501;-96
2023/07/02 03:53:58;;;;;;;32.13;13.05;;;;;;;13.95;100.00;100727.56;4898476;29;20410;-94
2023/07/02 03:56:24;;;;;;;37.42;12.65;;;;;;;13.97;100.00;100730.00;4893292;29;20127;-95
2023/07/02 03:58:49;;;;;;;27.55;12.70;;;;;;;13.89;100.00;100726.81;4880207;29;20056;-94
2023/07/02 04:01:15;;;;;;;30.77;12.07;;;;;;;13.98;100.00;100735.09;4897831;29;20035;-94
2023/07/02 04:03:47;;;;;;;29.10;12.00;;;;;;;14.00;100.00;100729.41;4897546;29;20035;-94
2023/07/02 04:06:12;;;;;;;30.65;12.13;;;;;;;14.06;100.00;100726.38;4898499;29;20081;-95
2023/07/02 04:08:38;;;;;;;27.50;12.40;;;;;;;14.07;100.00;100727.19;4898737;29;20056;-95
2023/07/02 04:11:03;;;;;;;30.07;11.60;;;;;;;14.05;100.00;100715.91;4898457;29;20025;-95
2023/07/02 04:13:28;;;;;;;26.87;11.27;;;;;;;14.10;100.00;100734.72;4899525;29;20457;-94
2023/07/02 04:15:54;;;;;;;31.60;11.23;;;;;;;14.16;100.00;100741.66;4898043;29;20645;-95
2023/07/02 04:18:19;;;;;;;25.93;10.63;;;;;;;14.07;100.00;100724.50;4899559;29;20024;-95
2023/07/02 04:20:44;;;;;;;29.23;10.97;;;;;;;14.16;100.00;100738.94;4902111;29;20024;-95
2023/07/02 04:23:10;;;;;;;26.10;10.63;;;;;;;14.10;100.00;100732.03;4901145;29;20064;-94
2023/07/02 04:25:35;;;;;;;22.73;9.83;;;;;;;14.17;100.00;100731.69;4900397;29;20081;-94
2023/07/02 04:28:00;;;;;;;29.30;11.20;;;;;;;14.29;100.00;100750.97;4912979;29;20461;-94
2023/07/02 04:30:26;;;;;;;27.47;10.10;;;;;;;14.34;100.00;100740.13;4899866;29;20034;-94
2023/07/02 04:32:52;;;;;;;23.97;10.33;;;;;;;14.51;100.00;100755.06;4917586;29;20063;-94
2023/07/02 04:35:17;;;;;;;28.67;10.32;;;;;;;14.53;100.00;100752.88;4923141;29;20024;-95
2023/07/02 04:37:43;;;;;;;29.43;11.03;;;;;;;14.56;100.00;100759.59;4927219;29;20103;-94
2023/07/02 04:40:11;;;;;;;28.70;11.27;;;;;;;14.64;100.00;100758.97;4928071;29;20103;-93
2023/07/02 04:42:38;;;;;;;28.88;10.55;;;;;;;14.67;100.00;100747.63;4928208;29;20496;-94
2023/07/02 04:45:05;;;;;;;27.33;11.07;;;;;;;14.71;100.00;100748.66;4907875;29;20126;-94
2023/07/02 04:47:30;;;;;;;26.37;9.97;;;;;;;14.82;100.00;100754.75;4903968;29;20024;-93
2023/07/02 04:49:56;;;;;;;27.10;10.73;;;;;;;14.89;100.00;100755.19;4917040;29;20629;-94
2023/07/02 04:52:22;;;;;;;28.60;10.40;;;;;;;15.06;100.00;100764.72;4897095;29;20099;-95
2023/07/02 04:54:47;;;;;;;27.17;10.07;;;;;;;15.49;100.00;100763.84;4898801;29;20379;-95
2023/07/02 04:57:14;;;;;;;29.83;11.07;;;;;;;15.78;100.00;100768.31;4917567;29;20152;-95
2023/07/02 04:59:41;;;;;;;24.65;10.18;;;;;;;16.00;100.00;100776.59;4916071;29;20056;-95
2023/07/02 05:02:06;;;;;;;22.42;10.02;;;;;;;16.41;100.00;100772.41;4934502;29;20016;-95
2023/07/02 05:04:31;;;;;;;29.73;9.40;;;;;;;16.64;97.84;100775.19;4921774;29;20048;-95
2023/07/02 05:06:57;;;;;;;24.20;9.20;;;;;;;17.00;95.21;100771.81;4919526;29;20035;-93
2023/07/02 05:09:22;;;;;;;21.57;9.57;;;;;;;17.43;92.01;100786.91;4936552;29;20035;-94
2023/07/02 05:11:47;;;;;;;27.92;9.52;;;;;;;17.39;90.16;100789.41;4916660;29;20075;-93
2023/07/02 05:14:12;;;;;;;20.70;9.10;;;;;;;17.06;92.79;100767.13;4895088;29;20142;-93
2023/07/02 05:16:38;;;;;;;23.23;9.23;;;;;;;17.15;92.20;100783.44;4919659;29;20020;-93
2023/07/02 05:19:03;;;;;;;24.93;9.70;;;;;;;17.23;90.52;100785.41;4921890;29;20028;-94
2023/07/02 05:21:29;;;;;;;26.70;8.73;;;;;;;17.11;91.04;100785.94;4922793;29;20032;-93
2023/07/02 05:23:54;;;;;;;24.70;9.07;;;;;;;17.11;92.16;100794.06;4921042;29;20063;-93
2023/07/02 05:26:19;;;;;;;23.57;8.53;;;;;;;17.59;88.01;100800.88;4901176;29;20028;-93
2023/07/02 05:28:46;;;;;;;20.20;8.45;;;;;;;17.82;85.51;100807.13;4902599;29;20063;-94
2023/07/02 05:31:11;;;;;;;22.53;9.37;;;;;;;17.84;83.83;100790.56;4921153;29;20025;-95
2023/07/02 05:33:38;;;;;;;23.13;8.57;;;;;;;17.93;81.18;100815.81;4920860;29;20052;-94
2023/07/02 05:36:04;;;;;;;22.75;8.27;;;;;;;17.70;82.68;100806.88;4920756;29;20103;-93
2023/07/02 05:38:29;;;;;;;24.37;8.47;;;;;;;17.66;82.20;100816.72;4920808;29;20513;-94
2023/07/02 05:40:54;;;;;;;23.27;7.97;;;;;;;17.52;81.14;100805.94;4920729;29;20024;-93
2023/07/02 05:43:20;;;;;;;20.95;7.85;;;;;;;17.60;82.00;100816.03;4920795;29;20032;-94
2023/07/02 05:45:45;;;;;;;22.80;7.30;;;;;;;17.76;79.99;100810.25;4921020;29;20031;-94
2023/07/02 05:48:10;;;;;;;23.63;7.80;;;;;;;18.12;77.22;100825.69;4920768;29;20473;-94
2023/07/02 05:50:36;;;;;;;20.17;6.77;;;;;;;18.31;77.42;100822.78;4921286;29;20032;-94
2023/07/02 05:53:01;;;;;;;21.90;8.07;;;;;;;18.70;74.15;100828.56;4900766;29;20110;-94
2023/07/02 05:55:26;;;;;;;22.70;7.78;;;;;;;18.70;73.93;100847.56;4918719;29;20030;-94
2023/07/02 05:57:52;;;;;;;20.27;7.53;;;;;;;18.81;73.93;100842.66;4903923;29;20401;-95
2023/07/02 06:00:17;;;;;;;21.73;7.77;;;;;;;19.12;72.81;100837.22;4922848;29;20032;-94
2023/07/02 06:02:45;;;;;;;19.40;7.40;;;;;;;19.39;70.22;100839.97;4907235;29;20039;-93
2023/07/02 06:05:11;;;;;;;15.63;6.78;;;;;;;19.30;68.44;100829.88;4931653;29;20092;-93
2023/07/02 06:07:36;;;;;;;21.20;7.33;;;;;;;19.25;67.98;100846.34;4923091;29;20051;-94
2023/07/02 06:10:01;;;;;;;18.37;6.90;;;;;;;19.00;68.30;100843.22;4921244;29;20311;-94
2023/07/02 06:12:27;;;;;;;21.03;6.50;;;;;;;18.82;70.40;100836.91;4922659;29;20469;-95
2023/07/02 06:14:52;;;;;;;17.23;6.57;;;;;;;18.80;67.38;100855.44;4904572;29;20468;-94
2023/07/02 06:17:17;;;;;;;23.20;6.90;;;;;;;18.72;70.78;100848.03;4920919;29;20040;-94
2023/07/02 06:19:44;;;;;;;17.13;6.95;;;;;;;19.16;70.72;100859.91;4921809;29;20036;-94
2023/07/02 06:22:09;;;;;;;17.47;6.63;;;;;;;19.55;68.91;100853.88;4933530;29;20020;-96
2023/07/02 06:24:35;;;;;;;21.75;7.10;;;;;;;19.75;64.24;100845.09;4934833;29;20046;-95
2023/07/02 06:27:01;;;;;;;20.93;6.63;;;;;;;19.74;64.26;100848.94;4924394;29;20032;-95
2023/07/02 06:29:28;;;;;;;15.95;6.72;;;;;;;19.68;65.22;100853.75;4906074;29;20028;-96
2023/07/02 06:31:53;;;;;;;14.75;6.38;;;;;;;19.67;65.03;100848.63;4906396;29;20032;-94
2023/07/02 06:34:19;;;;;;;16.70;6.23;;;;;;;19.87;62.59;100865.44;4899334;29;20214;-94
2023/07/02 06:36:44;;;;;;;15.77;5.97;;;;;;;20.06;63.99;100862.41;4898397;29;20071;-95
2023/07/02 06:39:09;;;;;;;24.87;6.30;;;;;;;20.15;62.24;100876.00;4883809;29;20124;-95
2023/07/02 06:41:35;;;;;;;14.17;6.20;;;;;;;20.09;59.86;100859.81;4900179;29;20037;-95
2023/07/02 06:44:01;;;;;;;17.40;6.47;;;;;;;20.12;60.24;100870.06;4907801;29;20364;-95
2023/07/02 06:46:27;;;;;;;16.80;6.10;;;;;;;20.13;61.42;100868.94;4911069;29;20034;-95
2023/07/02 06:48:52;;;;;;;20.57;6.33;;;;;;;20.28;61.64;100875.00;4902035;29;20119;-95
2023/07/02 06:51:18;;;;;;;18.83;6.80;;;;;;;20.26;61.95;100882.72;4906398;29;20301;-94
2023/07/02 06:53:45;;;;;;;15.68;5.88;;;;;;;20.12;61.23;100880.16;4903534;29;20043;-95
2023/07/02 06:56:10;;;;;;;14.33;5.90;;;;;;;19.90;60.13;100883.84;4898919;29;20064;-94
2023/07/02 06:58:36;;;;;;;17.20;6.33;;;;;;;19.74;61.68;100873.41;4899181;29;20313;-94
2023/07/02 07:01:01;;;;;;;20.30;6.17;;;;;;;19.77;60.06;100891.00;4898639;29;20029;-94
2023/07/02 07:03:26;;;;;;;16.40;5.82;;;;;;;19.90;64.27;100897.44;4898760;29;20028;-95
2023/07/02 07:05:53;;;;;;;20.47;6.20;;;;;;;20.01;62.88;100890.56;4898315;29;20029;-94
2023/07/02 07:08:18;;;;;;;15.73;6.38;;;;;;;20.33;59.30;100895.81;4898753;29;20104;-94
2023/07/02 07:10:45;;;;;;;16.37;6.23;;;;;;;20.54;60.40;100904.09;4900474;29;20052;-95
2023/07/02 07:13:10;;;;;;;18.52;6.22;;;;;;;20.71;58.79;100906.00;4905406;29;20029;-94
2023/07/02 07:15:36;;;;;;;15.83;5.67;;;;;;;20.71;59.11;100890.44;4899475;29;20029;-96
2023/07/02 07:18:03;;;;;;;12.57;5.57;;;;;;;20.91;57.58;100907.22;4904102;29;20029;-96
2023/07/02 07:20:29;;;;;;;17.38;6.15;;;;;;;20.95;58.71;100913.63;4899539;29;20090;-96
2023/07/02 07:22:55;;;;;;;12.77;5.45;;;;;;;20.75;55.03;100901.47;4881512;29;20481;-95
2023/07/02 07:25:20;;;;;;;17.02;6.05;;;;;;;20.71;57.13;100912.22;4898597;29;20031;-94
2023/07/02 07:27:46;;;;;;;15.77;6.00;;;;;;;20.80;56.84;100906.00;4899331;29;20461;-95
2023/07/02 07:30:12;;;;;;;13.43;5.00;;;;;;;20.90;54.57;100921.97;4901176;29;20032;-96
2023/07/02 07:32:37;;;;;;;13.02;5.55;;;;;;;21.01;54.58;100919.69;4880412;29;20021;-96
2023/07/02 07:35:02;;;;;;;14.13;5.63;;;;;;;21.25;54.17;100921.03;4899273;29;20032;-95
2023/07/02 07:37:28;;;;;;;12.60;5.85;;;;;;;21.51;52.84;100939.97;4878956;29;20033;-96
2023/07/02 07:39:53;;;;;;;15.13;5.80;;;;;;;21.42;50.07;100945.47;4900669;29;20495;-95
2023/07/02 07:42:19;;;;;;;14.97;5.77;;;;;;;21.31;51.46;100925.13;4903445;29;20092;-96
2023/07/02 07:44:45;;;;;;;16.43;5.30;;;;;;;21.68;53.10;100944.53;4919184;29;20025;-96
2023/07/02 07:47:17;;;;;;;12.80;5.55;;;;;;;21.62;52.07;100952.09;4896145;29;20073;-96
2023/07/02 07:49:42;;;;;;;12.63;4.95;;;;;;;21.54;51.52;100938.50;4908521;29;20044;-96
2023/07/02 07:52:08;;;;;;;12.25;5.13;;;;;;;21.67;51.48;100940.19;4899578;29;20037;-96
2023/07/02 07:54:35;;;;;;;13.67;5.00;;;;;;;21.78;50.33;100927.78;4906328;29;20033;-96
2023/07/02 07:57:01;;;;;;;13.90;5.10;;;;;;;21.87;49.75;100951.44;4893724;29;20393;-96
2023/07/02 07:59:26;;;;;;;14.73;5.37;;;;;;;21.96;49.35;100949.47;4888760;29;20071;-96
2023/07/02 08:01:52;;;;;;;12.63;5.33;;;;;;;22.03;47.76;100954.41;4905938;29;20629;-96
2023/07/02 08:04:17;;;;;;;12.87;5.40;;;;;;;21.92;47.60;100937.63;4901823;29;20104;-96
2023/07/02 08:06:42;;;;;;;11.57;5.13;;;;;;;21.92;48.33;100954.00;4900491;29;20049;-96
2023/07/02 08:09:09;;;;;;;12.30;5.00;;;;;;;21.81;48.86;100926.31;4903641;29;20028;-96
2023/07/02 08:11:34;;;;;;;14.68;5.10;;;;;;;22.13;48.94;100958.66;4886349;29;20112;-96
2023/07/02 08:14:01;;;;;;;11.73;5.30;;;;;;;22.25;48.48;100958.69;4907234;29;20080;-96
2023/07/02 08:16:27;;;;;;;13.82;5.18;;;;;;;22.22;48.32;100934.81;4890108;29;20035;-96
2023/07/02 08:18:55;;;;;;;12.50;4.93;;;;;;;22.20;47.38;100924.22;4886477;29;20040;-94
2023/07/02 08:21:20;;;;;;;12.95;5.30;;;;;;;22.44;47.06;100958.25;4864816;29;20029;-94
2023/07/02 08:23:47;;;;;;;10.20;4.70;;;;;;;22.45;46.52;100935.28;4889858;29;20081;-96
2023/07/02 08:26:15;;;;;;;9.45;4.85;;;;;;;22.60;47.08;100957.63;4909129;29;20025;-96
2023/07/02 08:28:42;;;;;;;10.85;5.35;;;;;;;22.38;45.86;100927.59;4901609;29;20523;-96
2023/07/02 08:31:08;;;;;;;14.05;5.50;;;;;;;22.52;46.95;100935.50;4911561;29;20028;-96
2023/07/02 08:33:34;;;;;;;13.77;5.00;;;;;;;22.84;48.18;100976.00;4919301;29;20039;-96
2023/07/02 08:36:00;;;;;;;12.27;5.00;;;;;;;22.55;46.14;100944.97;4929942;29;20344;-96
2023/07/02 08:38:39;;;;;;;11.88;5.18;;;;;;;22.40;47.92;100940.91;4917033;29;20397;-96
2023/07/02 08:41:08;;;;;;;12.85;5.20;;;;;;;22.47;47.64;100952.09;4936995;23;20105;-96
2023/07/02 08:43:35;;;;;;;12.20;5.10;;;;;;;22.79;47.70;100959.81;4891001;29;20036;-96
2023/07/02 08:46:04;;;;;;;13.70;5.47;;;;;;;22.87;46.37;100952.66;4896214;29;20076;-96
2023/07/02 08:48:30;;;;;;;11.93;4.93;;;;;;;23.03;44.82;100950.84;4898145;29;20285;-96
2023/07/02 08:50:58;;;;;;;13.07;5.18;;;;;;;23.01;44.71;100961.31;4895084;29;20069;-96
2023/07/02 08:53:29;;;;;;;14.98;5.13;;;;;;;23.04;42.10;100946.22;4896671;29;20025;-96
2023/07/02 08:55:55;;;;;;;11.70;4.93;;;;;;;23.27;40.03;100949.31;4896982;29;20005;-96
2023/07/02 08:58:24;;;;;;;10.55;4.75;;;;;;;23.23;39.92;100946.47;4898374;29;20044;-96
2023/07/02 09:01:12;;;;;;;13.27;5.03;;;;;;;23.28;42.66;100962.63;4895500;29;20021;-96
2023/07/02 09:03:40;;;;;;;14.85;5.18;;;;;;;22.43;42.51;100932.09;4880348;29;20040;-96
2023/07/02 09:06:08;;;;;;;12.65;4.90;;;;;;;22.23;43.31;100952.78;4900679;29;20032;-96
2023/07/02 09:08:38;;;;;;;14.45;4.93;;;;;;;22.46;43.49;100977.81;4899336;29;20070;-96
2023/07/02 09:14:00;;;;;;;13.17;5.10;;;;;;;22.99;41.51;100936.31;2197351;23;20323;-96
2023/07/02 09:16:29;;;;;;;11.07;4.40;;;;;;;23.73;39.81;100981.97;4920796;29;20020;-96
2023/07/02 09:21:50;;;;;;;12.27;4.55;;;;;;;23.66;39.55;100947.00;5064895;23;20052;-95
2023/07/02 09:24:25;;;;;;;10.98;5.10;;;;;;;23.16;38.55;100992.66;4896808;29;20074;-96
2023/07/02 09:27:00;;;;;;;10.10;4.57;;;;;;;22.79;40.36;100984.41;5019710;23;20047;-96
2023/07/02 09:29:31;;;;;;;9.13;4.50;;;;;;;22.44;41.75;100946.53;4924322;29;20501;-96
2023/07/02 09:32:03;;;;;;;11.40;4.82;;;;;;;22.76;41.69;100942.19;4927178;29;20136;-96
2023/07/02 09:34:33;;;;;;;13.20;5.35;;;;;;;23.24;40.31;100950.00;4910840;29;20021;-96
2023/07/02 09:37:00;;;;;;;10.70;5.23;;;;;;;23.36;40.15;100957.41;4911804;29;20028;-96
2023/07/02 09:39:31;;;;;;;14.13;4.87;;;;;;;23.36;40.81;100939.06;4907459;29;20324;-96
2023/07/02 09:42:00;;;;;;;11.73;4.32;;;;;;;23.89;39.80;100928.16;4933769;29;20036;-96
2023/07/02 09:44:31;;;;;;;12.13;4.97;;;;;;;24.38;39.73;100950.25;4912936;29;20033;-96
2023/07/02 09:47:07;;;;;;;9.35;5.53;;;;;;;24.93;39.21;100958.72;4915691;29;20084;-96
2023/07/02 09:52:10;;;;;;;11.40;4.88;;;;;;;24.30;38.10;100944.56;4912598;29;20057;-96
2023/07/02 09:54:37;;;;;;;10.80;5.35;;;;;;;24.04;38.52;100964.97;4912734;29;20511;-96
2023/07/02 09:57:05;;;;;;;12.80;5.03;;;;;;;23.59;39.84;100957.72;4912878;29;20029;-96
2023/07/02 09:59:32;;;;;;;11.63;4.90;;;;;;;23.61;41.12;100963.66;4897856;29;20033;-96
2023/07/02 10:02:01;;;;;;;12.03;4.80;;;;;;;23.72;41.67;100964.78;4894296;29;20465;-96
2023/07/02 10:04:40;;;;;;;12.73;4.80;;;;;;;23.89;42.35;100973.88;4973618;23;20316;-96
2023/07/02 10:07:06;;;;;;;11.07;5.00;;;;;;;23.60;41.71;100962.06;4940871;29;20035;-96
2023/07/02 10:09:46;;;;;;;12.52;5.40;;;;;;;23.27;42.56;100955.59;4941522;29;20111;-96
2023/07/02 10:12:19;;;;;;;12.10;5.53;;;;;;;23.49;41.50;100969.13;4928133;29;20021;-96
2023/07/02 10:14:55;;;;;;;14.95;5.70;;;;;;;23.81;40.59;100983.00;4920110;29;20011;-96
2023/07/02 10:17:32;;;;;;;13.85;5.32;;;;;;;23.90;40.64;100970.00;4917399;29;20055;-96
2023/07/02 10:20:00;;;;;;;11.38;5.40;;;;;;;24.02;41.34;100999.28;4921330;29;20039;-96
2023/07/02 10:22:25;;;;;;;15.20;5.40;;;;;;;23.38;40.45;100966.84;4918576;29;20032;-96
2023/07/02 10:24:53;;;;;;;13.43;4.93;;;;;;;22.89;41.85;100981.25;4921852;29;20033;-96
2023/07/02 10:27:18;;;;;;;10.93;5.55;;;;;;;22.28;43.57;100955.31;4920153;29;20044;-96
2023/07/02 10:29:50;;;;;;;13.48;5.10;;;;;;;22.13;43.89;100964.09;4915446;29;20037;-96
2023/07/02 10:32:30;;;;;;;14.93;4.90;;;;;;;22.59;45.19;101003.22;5003572;23;20111;-96
2023/07/02 10:34:58;;;;;;;13.00;5.10;;;;;;;22.71;44.23;100977.91;4919305;29;20295;-95
2023/07/02 10:37:24;;;;;;;10.68;5.00;;;;;;;22.92;43.91;100986.00;4899751;29;20108;-96
2023/07/02 10:39:52;;;;;;;13.07;5.63;;;;;;;23.01;42.97;100966.78;5015550;23;20080;-96
2023/07/02 10:45:42;;;;;;;13.43;5.65;;;;;;;23.37;41.92;100976.19;5112610;23;20131;-96
2023/07/02 10:48:11;;;;;;;13.85;5.63;;;;;;;23.59;42.36;100976.88;4940918;29;20064;-96
2023/07/02 10:50:38;;;;;;;15.63;5.27;;;;;;;23.41;41.31;100971.63;5071244;23;20048;-96
2023/07/02 10:53:05;;;;;;;13.27;5.87;;;;;;;23.59;41.60;100996.00;4950140;23;20380;-96
2023/07/02 13:28:09;;;;;;;8.90;4.20;;;;;;;25.37;33.13;100983.31;4918335;29;20305;-96
2023/07/02 13:30:52;;;;;;;6.93;3.97;;;;;;;25.17;33.86;100987.94;5181211;23;20072;-96
2023/07/02 13:33:20;;;;;;;9.90;4.50;;;;;;;25.10;33.00;100990.47;4937367;29;20028;-96
2023/07/02 13:35:46;;;;;;;8.88;3.92;;;;;;;25.07;32.83;100982.97;4938504;29;20019;-96
2023/07/02 13:38:12;;;;;;;8.30;4.10;;;;;;;25.36;32.48;100987.19;4925493;29;20036;-96
2023/07/02 13:40:43;;;;;;;8.55;4.57;;;;;;;25.48;32.85;100989.06;4924843;29;20051;-96
2023/07/02 13:43:08;;;;;;;10.27;4.60;;;;;;;25.59;31.67;100994.00;4925553;29;20044;-95
2023/07/02 13:45:34;;;;;;;6.70;4.00;;;;;;;25.83;32.22;100993.78;4921758;29;20036;-96
2023/07/02 13:47:59;;;;;;;10.30;3.90;;;;;;;25.87;32.74;101023.25;4939356;29;20055;-96
2023/07/02 13:50:25;;;;;;;9.20;4.07;;;;;;;25.47;33.60;100997.66;4942107;29;20012;-95
2023/07/02 13:52:51;;;;;;;10.30;4.57;;;;;;;25.76;33.75;101021.03;4914245;29;20043;-96